Time;durP1;ratioP1;P1;durP2;ratioP2;P2;SDS_P1;SDS_P2;PMS_P1;PMS_P2;Temp;Humidity;BMP_temperature;BMP_pressure;BME280_temperature;BME280_humidity;BME280_pressure;Samples;Min_cycle;Max_cycle;Signal;HPM_P1;HPM_P2
2022/01/14 00:01:43;;;;;;;10.57;6.32;;;3.40;86.70;;;;;;5031448;28;20095;-83
2022/01/14 00:04:09;;;;;;;12.52;6.68;;;3.40;87.00;;;;;;5032330;28;20458;-82
2022/01/14 00:06:35;;;;;;;12.05;6.15;;;3.40;87.10;;;;;;5031456;28;20040;-84
2022/01/14 00:09:06;;;;;;;11.32;5.63;;;3.40;87.00;;;;;;5030942;28;20036;-82
2022/01/14 00:11:47;;;;;;;8.55;5.43;;;3.40;86.80;;;;;;5031426;28;20052;-84
2022/01/14 00:16:39;;;;;;;10.98;6.07;;;3.50;86.40;;;;;;5031966;28;20081;-81
2022/01/14 00:19:05;;;;;;;12.00;6.03;;;3.50;86.30;;;;;;5031191;28;20034;-82
2022/01/14 00:21:34;;;;;;;9.25;6.10;;;3.50;86.80;;;;;;5031173;28;20481;-83
2022/01/14 00:24:09;;;;;;;13.57;8.40;;;3.40;87.00;;;;;;5031089;28;20029;-82
2022/01/14 00:32:15;;;;;;;15.85;6.97;;;3.30;87.40;;;;;;5031082;28;20266;-83
2022/01/14 00:34:41;;;;;;;11.93;6.63;;;3.30;86.80;;;;;;5031776;28;20104;-81
2022/01/14 00:37:06;;;;;;;10.80;6.60;;;3.30;86.90;;;;;;5030617;28;20136;-83
2022/01/14 00:39:32;;;;;;;12.10;6.47;;;3.30;86.40;;;;;;5030797;28;20021;-82
2022/01/14 00:41:58;;;;;;;12.73;6.63;;;3.30;86.60;;;;;;5030710;28;20025;-84
2022/01/14 00:44:24;;;;;;;12.52;6.70;;;3.30;86.10;;;;;;5030777;28;20026;-83
2022/01/14 00:46:50;;;;;;;9.70;6.43;;;3.30;86.30;;;;;;5030714;28;20018;-81
2022/01/14 00:49:18;;;;;;;12.57;6.80;;;3.20;86.10;;;;;;5030660;28;20037;-83
2022/01/14 00:51:44;;;;;;;10.20;5.90;;;3.20;86.50;;;;;;5031370;28;20021;-81
2022/01/14 00:54:11;;;;;;;10.52;6.07;;;3.20;86.40;;;;;;5030931;28;20048;-82
2022/01/14 00:59:16;;;;;;;9.57;6.28;;;3.20;86.40;;;;;;5030318;28;20048;-83
2022/01/14 01:02:01;;;;;;;10.48;6.20;;;3.20;86.40;;;;;;5031288;28;20029;-83
2022/01/14 01:04:36;;;;;;;12.80;6.25;;;3.20;86.10;;;;;;5030240;28;20037;-83
2022/01/14 01:07:05;;;;;;;11.45;6.10;;;3.20;86.20;;;;;;5030305;28;20032;-83
2022/01/14 01:09:31;;;;;;;10.27;6.47;;;3.20;86.00;;;;;;5030309;28;20094;-83
2022/01/14 01:12:14;;;;;;;10.57;6.28;;;3.10;86.10;;;;;;5030181;28;20033;-81
2022/01/14 01:14:51;;;;;;;11.80;6.68;;;3.10;85.70;;;;;;5030002;28;20021;-83
2022/01/14 01:17:17;;;;;;;11.40;6.78;;;3.00;86.00;;;;;;5030546;28;20041;-80
2022/01/14 01:19:44;;;;;;;10.65;6.35;;;3.00;85.70;;;;;;5029564;28;20045;-83
2022/01/14 01:22:10;;;;;;;11.13;6.38;;;2.80;86.30;;;;;;5029128;28;20489;-82
2022/01/14 01:24:36;;;;;;;10.63;6.55;;;2.80;86.30;;;;;;5029954;28;20062;-82
2022/01/14 01:27:08;;;;;;;11.07;6.60;;;2.70;86.30;;;;;;5029820;28;20021;-83
2022/01/14 01:32:03;;;;;;;11.50;6.60;;;2.70;86.20;;;;;;5029886;28;20072;-83
2022/01/14 01:34:29;;;;;;;9.70;6.30;;;2.60;86.50;;;;;;5029789;28;20026;-82
2022/01/14 01:36:58;;;;;;;9.18;6.35;;;2.50;86.50;;;;;;5029464;28;20033;-81
2022/01/14 01:39:26;;;;;;;12.02;7.15;;;2.50;87.10;;;;;;5029747;28;20079;-81
2022/01/14 01:41:55;;;;;;;13.10;6.85;;;2.40;87.50;;;;;;5029765;28;20052;-83
2022/01/14 01:44:22;;;;;;;13.18;7.55;;;2.40;87.60;;;;;;5029648;28;20112;-82
2022/01/14 01:46:49;;;;;;;13.88;7.13;;;2.30;87.60;;;;;;5029967;28;20540;-80
2022/01/14 01:49:17;;;;;;;16.45;7.70;;;2.30;87.60;;;;;;5030361;28;20025;-81
2022/01/14 01:51:45;;;;;;;11.52;6.85;;;2.20;87.20;;;;;;5029495;28;20014;-82
2022/01/14 01:54:10;;;;;;;12.50;7.45;;;2.20;88.20;;;;;;5028084;28;20065;-83
2022/01/14 01:56:36;;;;;;;11.73;7.60;;;2.10;88.80;;;;;;5029339;28;20030;-83
2022/01/14 01:59:03;;;;;;;10.43;6.97;;;2.10;88.20;;;;;;5029405;28;20034;-82
2022/01/14 02:01:29;;;;;;;9.63;6.68;;;2.00;89.00;;;;;;5029292;28;20026;-82
2022/01/14 02:03:56;;;;;;;11.20;7.07;;;2.00;88.90;;;;;;5027978;28;20120;-80
2022/01/14 02:06:22;;;;;;;10.43;6.82;;;2.00;89.00;;;;;;5029247;28;20052;-80
2022/01/14 02:08:49;;;;;;;11.82;7.32;;;1.90;88.60;;;;;;5028660;28;20088;-82
2022/01/14 02:11:15;;;;;;;11.60;6.95;;;1.90;89.30;;;;;;5030034;28;20094;-83
2022/01/14 02:13:41;;;;;;;10.65;7.25;;;1.80;89.30;;;;;;5029105;28;20022;-80
2022/01/14 02:16:33;;;;;;;13.43;7.68;;;1.80;89.20;;;;;;5029078;28;20017;-81
2022/01/14 02:19:16;;;;;;;16.48;8.27;;;1.80;90.10;;;;;;5029023;28;20497;-81
2022/01/14 02:27:07;;;;;;;19.13;10.00;;;1.90;90.90;;;;;;5028963;28;20030;-82
2022/01/14 02:29:33;;;;;;;18.45;10.63;;;2.00;90.60;;;;;;5027616;28;20045;-82
2022/01/14 02:31:59;;;;;;;23.98;12.50;;;2.10;90.90;;;;;;5028682;28;20033;-81
2022/01/14 02:34:24;;;;;;;23.92;12.30;;;2.20;91.00;;;;;;5028858;28;20026;-83
2022/01/14 02:36:52;;;;;;;21.73;12.50;;;2.20;91.00;;;;;;5028676;28;20116;-80
2022/01/14 02:39:19;;;;;;;25.60;12.25;;;2.30;91.20;;;;;;5028290;28;20061;-81
2022/01/14 02:41:47;;;;;;;25.35;12.43;;;2.30;91.20;;;;;;5027492;28;20025;-84
2022/01/14 02:44:26;;;;;;;22.33;12.02;;;2.40;91.30;;;;;;5027294;28;20045;-82
2022/01/14 02:46:56;;;;;;;26.83;13.15;;;2.40;91.30;;;;;;5027169;28;20081;-83
2022/01/14 02:49:30;;;;;;;21.48;11.52;;;2.40;91.50;;;;;;5027325;28;20025;-81
2022/01/14 02:51:57;;;;;;;29.13;13.85;;;2.40;91.40;;;;;;5027268;28;20063;-80
2022/01/14 02:54:31;;;;;;;24.27;12.85;;;2.30;91.60;;;;;;5027369;28;20022;-81
2022/01/14 02:56:59;;;;;;;24.33;12.70;;;2.30;91.50;;;;;;5028579;28;20033;-82
2022/01/14 02:59:27;;;;;;;25.80;13.20;;;2.30;91.40;;;;;;5028416;28;20108;-82
2022/01/14 03:01:56;;;;;;;31.77;13.32;;;2.30;91.30;;;;;;5028030;28;20022;-80
2022/01/14 03:04:22;;;;;;;;;;;2.30;91.30;;;;;;5034548;28;20025;-82
2022/01/14 03:06:49;;;;;;;27.58;14.50;;;2.20;91.00;;;;;;5029714;28;19920;-82
2022/01/14 03:09:15;;;;;;;28.95;13.93;;;2.20;91.20;;;;;;5036550;28;20037;-83
2022/01/14 03:11:47;;;;;;;25.08;12.88;;;2.10;91.30;;;;;;5027529;28;20421;-80
2022/01/14 03:14:21;;;;;;;23.90;13.00;;;2.10;91.10;;;;;;5036757;28;20029;-81
2022/01/14 03:16:48;;;;;;;25.02;13.32;;;2.10;91.20;;;;;;5045108;28;20034;-81
2022/01/14 03:19:20;;;;;;;25.25;13.20;;;2.00;91.40;;;;;;5026839;28;20080;-81
2022/01/14 03:21:45;;;;;;;26.08;13.48;;;2.00;91.10;;;;;;5028480;28;20044;-82
2022/01/14 03:24:20;;;;;;;24.85;13.90;;;2.00;91.30;;;;;;5028375;28;20385;-81
2022/01/14 03:26:47;;;;;;;27.52;13.00;;;1.90;91.30;;;;;;5027729;28;20060;-81
2022/01/14 03:29:14;;;;;;;25.73;13.32;;;2.00;92.50;;;;;;5028153;28;20575;-82
2022/01/14 03:31:40;;;;;;;26.80;12.93;;;1.70;91.10;;;;;;5028417;28;20116;-82
2022/01/14 03:34:06;;;;;;;28.65;13.27;;;1.70;91.20;;;;;;5028342;28;20084;-82
2022/01/14 03:36:32;;;;;;;24.92;13.90;;;1.60;91.20;;;;;;5027150;28;20029;-83
2022/01/14 03:38:57;;;;;;;29.00;14.65;;;1.60;91.30;;;;;;5028239;28;20036;-83
2022/01/14 03:41:23;;;;;;;31.05;14.88;;;1.60;91.40;;;;;;5030110;28;20037;-83
2022/01/14 03:43:49;;;;;;;32.33;15.32;;;1.50;91.50;;;;;;5028531;28;20022;-83
2022/01/14 03:46:15;;;;;;;30.35;14.57;;;1.50;91.20;;;;;;5031427;28;20265;-83
2022/01/14 03:48:40;;;;;;;29.95;14.65;;;1.50;91.60;;;;;;5031721;28;20029;-83
2022/01/14 03:51:06;;;;;;;28.17;13.50;;;2.00;92.00;;;;;;5031362;28;20037;-82
2022/01/14 03:53:33;;;;;;;30.92;14.75;;;1.40;91.80;;;;;;5031723;28;20026;-82
2022/01/14 03:55:59;;;;;;;31.40;14.82;;;1.40;91.60;;;;;;5030247;28;20029;-82
2022/01/14 03:58:25;;;;;;;28.90;14.45;;;1.40;92.00;;;;;;5031617;28;20087;-82
2022/01/14 04:00:50;;;;;;;27.48;14.50;;;1.40;91.80;;;;;;5032014;28;20022;-82
2022/01/14 04:03:16;;;;;;;32.40;15.20;;;1.40;91.90;;;;;;5031465;28;20105;-82
2022/01/14 04:05:42;;;;;;;30.23;14.43;;;1.40;91.70;;;;;;5031369;28;20021;-82
2022/01/14 04:08:07;;;;;;;29.17;14.82;;;1.30;91.80;;;;;;5030676;28;20029;-82
2022/01/14 04:10:33;;;;;;;29.63;16.00;;;1.20;91.80;;;;;;5030492;28;20034;-82
2022/01/14 04:13:04;;;;;;;33.78;16.65;;;1.20;92.30;;;;;;5031182;28;20032;-82
2022/01/14 04:15:36;;;;;;;29.88;16.05;;;1.10;92.40;;;;;;5030896;28;20500;-82
2022/01/14 04:18:04;;;;;;;28.98;14.27;;;1.00;92.50;;;;;;5047986;28;20037;-82
2022/01/14 04:20:30;;;;;;;27.00;13.43;;;1.00;93.00;;;;;;5051169;28;20025;-82
2022/01/14 04:22:57;;;;;;;23.70;12.30;;;1.00;92.90;;;;;;5051565;28;20032;-82
2022/01/14 04:25:23;;;;;;;26.63;12.70;;;1.00;92.90;;;;;;5050724;28;20029;-81
2022/01/14 04:27:49;;;;;;;22.65;13.05;;;1.00;93.00;;;;;;5030514;28;20057;-82
2022/01/14 04:30:15;;;;;;;23.65;12.57;;;0.90;92.80;;;;;;5033273;28;20053;-82
2022/01/14 04:32:41;;;;;;;25.33;12.93;;;0.70;94.20;;;;;;5030572;28;20051;-79
2022/01/14 04:35:07;;;;;;;28.38;12.65;;;0.80;93.30;;;;;;5030588;28;20026;-81
2022/01/14 04:37:33;;;;;;;25.05;12.40;;;0.90;92.70;;;;;;5029233;28;20025;-81
2022/01/14 04:39:59;;;;;;;24.75;12.43;;;0.90;92.80;;;;;;5030810;28;20026;-81
2022/01/14 04:42:26;;;;;;;29.13;13.43;;;0.80;92.80;;;;;;5031648;28;20021;-81
2022/01/14 04:44:54;;;;;;;28.90;13.25;;;0.80;92.40;;;;;;5031738;28;20063;-80
2022/01/14 04:47:33;;;;;;;29.90;14.07;;;0.80;92.40;;;;;;5030290;28;20024;-81
2022/01/14 04:50:00;;;;;;;28.85;14.13;;;0.70;92.80;;;;;;5029145;28;20037;-81
2022/01/14 04:52:27;;;;;;;29.75;14.30;;;0.80;92.70;;;;;;5031265;28;20501;-81
2022/01/14 04:54:53;;;;;;;29.85;14.45;;;0.80;92.60;;;;;;5030470;28;20025;-81
2022/01/14 04:57:21;;;;;;;28.63;14.13;;;0.80;92.80;;;;;;5030232;28;20120;-81
2022/01/14 04:59:50;;;;;;;30.20;13.95;;;0.80;92.70;;;;;;5030343;28;20515;-83
2022/01/14 05:02:16;;;;;;;31.58;14.60;;;0.80;92.90;;;;;;5029876;28;20037;-84
2022/01/14 05:04:44;;;;;;;27.17;13.80;;;0.80;93.20;;;;;;5030459;28;20025;-83
2022/01/14 05:07:12;;;;;;;31.83;15.32;;;0.80;93.30;;;;;;5030217;28;20028;-83
2022/01/14 05:09:45;;;;;;;29.30;14.60;;;0.70;93.20;;;;;;5030255;28;20082;-83
2022/01/14 05:12:11;;;;;;;36.00;15.75;;;0.70;93.50;;;;;;5030227;28;20025;-83
2022/01/14 05:14:38;;;;;;;34.58;15.80;;;0.70;93.20;;;;;;5029742;28;20499;-82
2022/01/14 05:17:04;;;;;;;32.58;16.10;;;0.70;93.10;;;;;;5029719;28;20034;-83
2022/01/14 05:19:30;;;;;;;33.08;15.63;;;0.70;93.30;;;;;;5028090;28;20064;-82
2022/01/14 05:21:56;;;;;;;31.75;16.20;;;0.60;93.30;;;;;;5030882;28;20067;-83
2022/01/14 05:24:23;;;;;;;31.42;15.43;;;0.70;93.80;;;;;;5030045;28;20032;-82
2022/01/14 05:26:49;;;;;;;31.45;15.15;;;0.70;93.60;;;;;;5029920;28;20024;-83
2022/01/14 05:29:15;;;;;;;29.30;15.57;;;0.60;93.60;;;;;;5030077;28;20108;-83
2022/01/14 05:31:45;;;;;;;32.28;14.95;;;0.50;94.00;;;;;;5029892;28;20018;-83
2022/01/14 05:34:12;;;;;;;27.27;14.00;;;0.30;97.10;;;;;;5028417;28;20427;-82
2022/01/14 05:36:38;;;;;;;36.38;16.63;;;0.30;96.80;;;;;;5028186;28;20034;-82
2022/01/14 05:39:05;;;;;;;32.28;14.77;;;0.00;99.90;;;;;;5029748;28;20152;-82
2022/01/14 05:41:31;;;;;;;30.25;15.07;;;0.00;99.90;;;;;;5030295;28;20033;-82
2022/01/14 05:43:56;;;;;;;29.00;14.82;;;0.10;98.40;;;;;;5030326;28;20036;-82
2022/01/14 05:46:22;;;;;;;28.58;13.30;;;0.20;96.90;;;;;;5029592;28;20021;-82
2022/01/14 05:48:48;;;;;;;29.75;13.75;;;0.30;96.30;;;;;;5029604;28;20100;-82
2022/01/14 05:51:14;;;;;;;27.80;13.55;;;0.40;96.60;;;;;;5029565;28;20112;-83
2022/01/14 05:53:39;;;;;;;29.05;14.65;;;0.10;97.80;;;;;;5028180;28;20018;-83
2022/01/14 05:56:05;;;;;;;30.85;15.68;;;0.20;97.60;;;;;;5029284;28;20084;-82
2022/01/14 05:58:30;;;;;;;34.38;16.02;;;0.10;97.70;;;;;;5030205;28;20040;-83
2022/01/14 06:00:56;;;;;;;38.95;15.70;;;0.20;97.00;;;;;;5029212;28;20036;-82
2022/01/14 06:03:22;;;;;;;33.13;16.00;;;0.30;96.40;;;;;;5029350;28;20460;-83
2022/01/14 06:05:48;;;;;;;31.27;15.75;;;0.20;95.80;;;;;;5029272;28;20033;-83
2022/01/14 06:08:14;;;;;;;38.45;18.20;;;0.20;96.20;;;;;;5028853;28;20032;-83
2022/01/14 06:10:40;;;;;;;44.17;17.15;;;0.30;96.40;;;;;;5029125;28;20025;-82
2022/01/14 06:13:06;;;;;;;39.00;16.27;;;1.00;97.80;;;;;;5029148;28;20051;-83
2022/01/14 06:15:32;;;;;;;34.67;16.65;;;0.20;96.10;;;;;;5029927;28;20029;-82
2022/01/14 06:17:58;;;;;;;30.33;15.77;;;0.30;96.10;;;;;;5029914;28;20041;-83
2022/01/14 06:20:24;;;;;;;33.78;15.55;;;0.30;95.70;;;;;;5029042;28;20124;-83
2022/01/14 06:22:50;;;;;;;33.17;16.02;;;0.30;95.30;;;;;;5028899;28;20437;-82
2022/01/14 06:25:15;;;;;;;36.13;16.33;;;0.30;95.00;;;;;;5028876;28;20021;-83
2022/01/14 06:27:41;;;;;;;36.63;16.80;;;0.40;94.80;;;;;;5028833;28;20033;-83
2022/01/14 06:30:08;;;;;;;37.17;16.70;;;0.40;94.70;;;;;;5028729;28;20037;-82
2022/01/14 06:32:41;;;;;;;39.67;17.65;;;0.50;95.00;;;;;;5028418;28;20362;-83
2022/01/14 06:35:10;;;;;;;43.40;20.73;;;-1.20;99.90;;;;;;5028668;28;20498;-86
2022/01/14 06:37:36;;;;;;;34.80;16.55;;;0.50;98.00;;;;;;5027473;28;20192;-88
2022/01/14 06:40:03;;;;;;;35.28;16.25;;;0.60;96.90;;;;;;5029883;28;20199;-87
2022/01/14 06:42:29;;;;;;;38.83;15.60;;;0.80;95.80;;;;;;5029957;28;20029;-87
2022/01/14 06:44:55;;;;;;;36.90;14.93;;;1.00;95.10;;;;;;5027627;28;20048;-88
2022/01/14 06:47:21;;;;;;;35.28;16.05;;;1.00;94.60;;;;;;5028466;28;20055;-87
2022/01/14 06:49:47;;;;;;;38.20;18.70;;;1.10;94.30;;;;;;5028546;28;20033;-86
2022/01/14 06:52:13;;;;;;;35.50;16.35;;;2.80;94.40;;;;;;5027659;28;20056;-87
2022/01/14 06:54:38;;;;;;;40.88;18.17;;;2.50;94.10;;;;;;5014754;28;20363;-89
2022/01/14 06:57:05;;;;;;;37.47;17.73;;;1.30;93.50;;;;;;5017780;28;20097;-88
2022/01/14 06:59:30;;;;;;;38.00;17.38;;;1.10;94.20;;;;;;5020997;28;20394;-87
2022/01/14 07:01:56;;;;;;;38.08;16.50;;;1.00;94.40;;;;;;5027891;28;20039;-86
2022/01/14 07:04:22;;;;;;;43.63;16.98;;;0.90;94.50;;;;;;5027662;28;20497;-87
2022/01/14 07:06:47;;;;;;;34.40;17.45;;;0.90;94.20;;;;;;5027283;28;20032;-87
2022/01/14 07:09:13;;;;;;;35.50;16.65;;;1.40;93.80;;;;;;5027705;28;20057;-86
2022/01/14 07:11:38;;;;;;;34.80;16.00;;;0.90;93.60;;;;;;5028952;28;20025;-88
2022/01/14 07:14:06;;;;;;;34.38;15.45;;;1.40;93.40;;;;;;5028718;28;20029;-87
2022/01/14 07:16:33;;;;;;;31.42;15.38;;;0.80;93.00;;;;;;5029623;28;20059;-88
2022/01/14 07:19:00;;;;;;;35.40;15.38;;;0.80;93.10;;;;;;5028936;28;20128;-86
2022/01/14 07:21:26;;;;;;;33.95;15.90;;;0.80;93.20;;;;;;5032563;28;20805;-87
2022/01/14 07:23:52;;;;;;;32.55;16.05;;;1.10;93.70;;;;;;5030996;28;20392;-87
2022/01/14 07:26:19;;;;;;;32.95;15.80;;;0.70;93.50;;;;;;5032756;28;20100;-87
2022/01/14 07:28:45;;;;;;;39.25;16.65;;;;;;;;;;5031614;28;20021;-87
2022/01/14 07:31:10;;;;;;;36.28;16.08;;;0.60;94.40;;;;;;5032570;28;20105;-88
2022/01/14 07:33:36;;;;;;;36.55;16.90;;;0.70;94.20;;;;;;5033081;28;20052;-88
2022/01/14 07:36:03;;;;;;;36.10;16.05;;;0.80;94.00;;;;;;5028007;28;20030;-87
2022/01/14 07:38:28;;;;;;;32.90;15.60;;;0.90;94.10;;;;;;5030729;28;20033;-88
2022/01/14 07:40:54;;;;;;;30.42;14.85;;;1.00;94.20;;;;;;5030748;28;20030;-87
2022/01/14 07:43:21;;;;;;;32.33;16.02;;;;;;;;;;5030636;28;20565;-87
2022/01/14 07:45:47;;;;;;;34.05;15.35;;;1.10;94.50;;;;;;5029900;28;20112;-88
2022/01/14 07:48:14;;;;;;;35.10;15.88;;;1.30;94.60;;;;;;5031793;28;20060;-88
2022/01/14 07:50:40;;;;;;;32.95;15.18;;;1.20;94.70;;;;;;5030411;28;20465;-88
2022/01/14 07:53:06;;;;;;;34.17;15.40;;;;;;;;;;5032643;28;20061;-88
2022/01/14 07:55:31;;;;;;;34.03;16.58;;;1.30;94.50;;;;;;5030043;28;20040;-88
2022/01/14 07:57:57;;;;;;;32.38;15.75;;;1.20;96.40;;;;;;5030150;28;20326;-87
2022/01/14 08:00:23;;;;;;;38.28;16.23;;;;;;;;;;5030464;28;20069;-88
2022/01/14 08:02:49;;;;;;;33.30;15.02;;;1.50;94.20;;;;;;5031593;28;20030;-89
2022/01/14 08:05:15;;;;;;;35.28;16.00;;;;;;;;;;5031663;28;20079;-88
2022/01/14 08:07:46;;;;;;;33.83;15.50;;;1.50;94.00;;;;;;5031327;28;20032;-89
2022/01/14 08:10:13;;;;;;;33.38;15.73;;;1.50;94.40;;;;;;5031605;28;20064;-88
2022/01/14 08:12:40;;;;;;;35.15;16.05;;;3.00;94.60;;;;;;5030734;28;20485;-88
2022/01/14 08:15:11;;;;;;;32.63;16.30;;;3.20;94.60;;;;;;5032203;28;20028;-87
2022/01/14 08:17:37;;;;;;;31.90;16.05;;;;;;;;;;5032111;28;20095;-87
2022/01/14 08:20:04;;;;;;;31.70;14.65;;;1.50;93.90;;;;;;5030302;28;20080;-88
2022/01/14 08:22:31;;;;;;;39.35;18.20;;;1.50;94.20;;;;;;5031400;28;20029;-87
2022/01/14 08:24:57;;;;;;;37.75;18.17;;;1.10;99.20;;;;;;5031226;28;20544;-87
2022/01/14 08:27:26;;;;;;;37.25;16.52;;;1.50;99.00;;;;;;5030962;28;20474;-87
2022/01/14 08:29:52;;;;;;;31.23;16.10;;;1.10;98.70;;;;;;5029219;28;20472;-87
2022/01/14 08:32:18;;;;;;;30.27;15.20;;;1.20;97.60;;;;;;5030979;28;20048;-88
2022/01/14 08:34:44;;;;;;;32.83;15.40;;;1.30;96.50;;;;;;5031193;28;20393;-88
2022/01/14 08:37:10;;;;;;;33.20;14.50;;;1.20;97.40;;;;;;5031710;28;20036;-88
2022/01/14 08:39:35;;;;;;;31.02;14.27;;;1.40;96.10;;;;;;5031267;28;20404;-87
2022/01/14 08:42:03;;;;;;;31.77;14.98;;;1.40;95.60;;;;;;5031147;28;20029;-88
2022/01/14 08:44:29;;;;;;;29.90;14.57;;;1.50;95.30;;;;;;5030844;28;20017;-87
2022/01/14 08:46:55;;;;;;;29.48;14.57;;;1.50;95.10;;;;;;5029676;28;20036;-88
2022/01/14 08:49:22;;;;;;;32.47;15.20;;;1.50;95.20;;;;;;5029512;28;20493;-88
2022/01/14 08:51:49;;;;;;;37.08;16.48;;;2.30;95.20;;;;;;5029573;28;20067;-88
2022/01/14 08:54:16;;;;;;;33.33;16.52;;;1.60;95.10;;;;;;5029477;28;20029;-88
2022/01/14 08:56:42;;;;;;;30.88;15.80;;;1.70;95.30;;;;;;5030592;28;20017;-89
2022/01/14 08:59:08;;;;;;;37.08;14.88;;;1.70;95.10;;;;;;5031400;28;20390;-87
2022/01/14 09:01:35;;;;;;;34.47;16.23;;;2.50;95.10;;;;;;5029504;28;20029;-86
2022/01/14 09:04:02;;;;;;;34.75;15.60;;;2.90;95.20;;;;;;5029413;28;20237;-88
2022/01/14 09:06:28;;;;;;;34.42;16.92;;;2.50;95.00;;;;;;5030697;28;20489;-88
2022/01/14 09:08:54;;;;;;;36.20;17.75;;;2.20;94.70;;;;;;5028346;28;20017;-88
2022/01/14 09:11:20;;;;;;;42.17;19.52;;;1.80;94.60;;;;;;5028852;28;20500;-87
2022/01/14 09:13:46;;;;;;;47.63;19.92;;;1.80;94.50;;;;;;5029115;28;20021;-88
2022/01/14 09:16:12;;;;;;;40.47;18.85;;;1.80;94.40;;;;;;5029275;28;20036;-88
2022/01/14 09:18:37;;;;;;;39.75;17.27;;;1.70;94.40;;;;;;5029413;28;20041;-89
2022/01/14 09:21:03;;;;;;;40.95;18.10;;;1.70;94.30;;;;;;5029889;28;20155;-89
2022/01/14 09:23:29;;;;;;;53.97;19.10;;;1.70;94.60;;;;;;5030088;28;20489;-88
2022/01/14 09:25:56;;;;;;;36.55;18.00;;;1.70;94.70;;;;;;5028645;28;20040;-87
2022/01/14 09:28:21;;;;;;;38.20;17.90;;;1.70;94.60;;;;;;5028840;28;20107;-86
2022/01/14 09:30:47;;;;;;;53.97;18.40;;;1.80;94.90;;;;;;5028584;28;20490;-87
2022/01/14 09:33:16;;;;;;;49.10;18.85;;;1.90;94.90;;;;;;5028611;28;20030;-87
2022/01/14 09:35:42;;;;;;;58.92;20.02;;;2.50;95.40;;;;;;5030150;28;20026;-88
2022/01/14 09:38:08;;;;;;;45.30;19.13;;;1.90;95.20;;;;;;5028963;28;20571;-88
2022/01/14 09:40:35;;;;;;;48.15;19.75;;;1.90;95.00;;;;;;5028190;28;20026;-88
2022/01/14 09:43:01;;;;;;;42.22;19.83;;;1.90;95.20;;;;;;5028410;28;20030;-87
2022/01/14 09:45:28;;;;;;;48.45;21.08;;;2.40;95.40;;;;;;5029588;28;20025;-88
2022/01/14 09:47:55;;;;;;;41.70;19.48;;;2.70;95.40;;;;;;5029492;28;20025;-88
2022/01/14 09:50:22;;;;;;;41.97;18.67;;;3.40;95.50;;;;;;5028096;28;20025;-86
2022/01/14 09:52:51;;;;;;;42.25;18.48;;;2.90;95.30;;;;;;5028145;28;20112;-87
2022/01/14 09:55:20;;;;;;;40.83;17.90;;;2.80;95.20;;;;;;5027723;28;20203;-88
2022/01/14 09:57:46;;;;;;;40.97;18.70;;;3.70;95.80;;;;;;5028096;28;20049;-88
2022/01/14 10:00:12;;;;;;;41.30;18.65;;;3.80;95.80;;;;;;5028171;28;20447;-88
2022/01/14 10:02:42;;;;;;;44.65;19.38;;;2.20;95.00;;;;;;5028965;28;20037;-88
2022/01/14 10:05:10;;;;;;;44.33;18.38;;;2.30;95.40;;;;;;5039562;28;20611;-87
2022/01/14 10:07:36;;;;;;;41.88;19.83;;;2.30;95.20;;;;;;5046361;28;20033;-88
2022/01/14 10:10:22;;;;;;;48.72;20.88;;;2.90;95.50;;;;;;5027800;28;20511;-87
2022/01/14 10:12:48;;;;;;;42.78;18.75;;;2.40;95.20;;;;;;5027443;28;20037;-87
2022/01/14 10:15:13;;;;;;;47.20;21.00;;;3.40;95.50;;;;;;5027903;28;20030;-88
2022/01/14 10:17:42;;;;;;;45.13;19.60;;;2.80;95.40;;;;;;5028406;28;20109;-87
2022/01/14 10:20:09;;;;;;;;;;;2.40;95.70;;;;;;5028866;28;20079;-87
2022/01/14 10:22:41;;;;;;;46.08;19.35;;;2.40;95.80;;;;;;5061213;28;19905;-86
2022/01/14 10:25:11;;;;;;;35.90;18.35;;;2.50;95.60;;;;;;5028202;28;20029;-88
2022/01/14 10:27:39;;;;;;;40.05;18.73;;;2.50;95.40;;;;;;5028367;28;20537;-88
2022/01/14 10:30:25;;;;;;;35.88;16.77;;;2.50;95.60;;;;;;5027508;28;20049;-88
2022/01/14 10:33:06;;;;;;;36.53;18.70;;;2.60;95.30;;;;;;5027851;28;20029;-85
2022/01/14 10:35:36;;;;;;;41.70;18.52;;;2.60;95.50;;;;;;5028987;28;20449;-88
2022/01/14 10:38:07;;;;;;;43.08;19.40;;;2.60;95.10;;;;;;5030867;28;20044;-85
2022/01/14 10:40:41;;;;;;;40.42;20.33;;;3.20;95.20;;;;;;5028051;28;20026;-87
2022/01/14 10:43:09;;;;;;;41.78;19.73;;;2.70;95.00;;;;;;5028145;28;20513;-87
2022/01/14 10:45:36;;;;;;;53.20;21.95;;;2.80;95.10;;;;;;5027277;28;20378;-88
2022/01/14 10:48:05;;;;;;;39.05;18.55;;;2.80;95.00;;;;;;5027480;28;20061;-88
2022/01/14 10:50:34;;;;;;;;;;;2.80;95.00;;;;;;5027759;28;20104;-88
2022/01/14 10:53:02;;;;;;;47.97;18.00;;;2.70;95.10;;;;;;5027540;28;19912;-87
2022/01/14 10:55:32;;;;;;;40.97;18.70;;;2.90;95.20;;;;;;5032938;28;20048;-87
2022/01/14 10:57:58;;;;;;;48.20;20.17;;;2.70;95.00;;;;;;5031700;28;20547;-88
2022/01/14 11:00:24;;;;;;;44.30;20.15;;;3.30;95.30;;;;;;5032745;28;20049;-87
2022/01/14 11:02:53;;;;;;;46.08;20.55;;;2.80;95.00;;;;;;5032332;28;20030;-88
2022/01/14 11:05:21;;;;;;;45.17;20.52;;;3.20;94.90;;;;;;5031110;28;20400;-88
2022/01/14 11:07:48;;;;;;;43.17;19.55;;;3.20;94.80;;;;;;5031281;28;20034;-88
2022/01/14 11:10:17;;;;;;;41.05;18.75;;;3.20;94.90;;;;;;5030459;28;20021;-88
2022/01/14 11:12:42;;;;;;;;;;;2.90;94.60;;;;;;5031238;28;20511;-87
2022/01/14 11:15:09;;;;;;;45.58;19.65;;;3.80;94.80;;;;;;5065544;28;19905;-88
2022/01/14 11:17:37;;;;;;;41.30;18.50;;;2.90;94.90;;;;;;5031282;28;20059;-87
2022/01/14 11:20:04;;;;;;;46.67;19.63;;;3.20;94.90;;;;;;5030999;28;20061;-88
2022/01/14 11:25:15;;;;;;;43.97;19.10;;;2.90;94.80;;;;;;5032603;28;20032;-89
2022/01/14 11:27:46;;;;;;;42.15;19.40;;;2.90;95.10;;;;;;5035388;28;20029;-88
2022/01/14 11:30:15;;;;;;;40.72;17.40;;;4.20;95.00;;;;;;5036061;28;20025;-87
2022/01/14 11:32:58;;;;;;;45.92;19.70;;;3.80;94.60;;;;;;5032716;28;20123;-87
2022/01/14 11:35:26;;;;;;;41.55;19.48;;;3.10;94.80;;;;;;5031161;28;20029;-86
2022/01/14 11:37:52;;;;;;;39.78;19.08;;;3.50;94.80;;;;;;5031033;28;20068;-88
2022/01/14 11:40:19;;;;;;;36.47;17.70;;;4.10;94.90;;;;;;5032504;28;20100;-88
2022/01/14 11:43:01;;;;;;;48.58;20.58;;;3.40;94.40;;;;;;5031455;28;20543;-91
2022/01/14 11:45:40;;;;;;;42.20;19.88;;;3.30;94.30;;;;;;5033392;28;20029;-90
2022/01/14 11:48:06;;;;;;;;;;;3.30;94.30;;;;;;5032454;28;20108;-89
2022/01/14 11:50:31;;;;;;;43.03;19.50;;;3.40;94.60;;;;;;5031969;28;20356;-88
2022/01/14 11:52:58;;;;;;;41.78;18.50;;;3.40;94.40;;;;;;5032181;28;20037;-88
2022/01/14 11:55:34;;;;;;;44.72;20.17;;;4.50;94.50;;;;;;5030801;28;20025;-89
2022/01/14 11:58:06;;;;;;;41.72;18.50;;;3.30;94.20;;;;;;5030846;28;20478;-89
2022/01/14 12:00:41;;;;;;;48.38;19.95;;;3.30;94.00;;;;;;5030965;28;20429;-88
2022/01/14 12:03:06;;;;;;;42.63;19.40;;;3.20;94.30;;;;;;5030877;28;20064;-89
2022/01/14 12:05:34;;;;;;;42.55;19.55;;;3.20;93.90;;;;;;5030139;28;20060;-90
2022/01/14 12:08:02;;;;;;;44.20;18.10;;;3.10;94.20;;;;;;5032809;28;20064;-88
2022/01/14 12:10:29;;;;;;;;;;;4.00;94.40;;;;;;5030667;28;20471;-87
2022/01/14 12:13:28;;;;;;;43.17;18.15;;;3.70;94.30;;;;;;5030340;28;20361;-88
2022/01/14 12:15:58;;;;;;;48.25;19.00;;;3.10;94.10;;;;;;5030443;28;20028;-87
2022/01/14 12:18:46;;;;;;;48.92;19.75;;;3.10;94.50;;;;;;5030073;28;20456;-88
2022/01/14 12:21:12;;;;;;;47.22;19.80;;;3.00;94.30;;;;;;5032691;28;20025;-87
2022/01/14 12:23:38;;;;;;;47.15;19.63;;;3.80;94.20;;;;;;5030458;28;20072;-87
2022/01/14 12:26:23;;;;;;;44.15;19.73;;;3.50;94.30;;;;;;5030657;28;20061;-87
2022/01/14 12:29:10;;;;;;;46.38;19.17;;;3.00;94.00;;;;;;5031340;28;20077;-87
2022/01/14 12:32:00;;;;;;;48.15;19.98;;;3.00;94.20;;;;;;5030061;28;20064;-88
2022/01/14 12:34:26;;;;;;;43.90;18.70;;;3.00;94.50;;;;;;5029870;28;20036;-88
2022/01/14 12:36:51;;;;;;;45.55;20.40;;;2.90;94.70;;;;;;5029862;28;20120;-87
2022/01/14 12:39:18;;;;;;;49.60;21.42;;;3.10;94.80;;;;;;5030235;28;20136;-87
2022/01/14 12:41:44;;;;;;;41.58;18.88;;;3.40;95.20;;;;;;5030832;28;20117;-87
2022/01/14 12:44:10;;;;;;;46.97;20.92;;;3.00;94.60;;;;;;5031807;28;20028;-87
2022/01/14 12:49:33;;;;;;;53.10;21.92;;;3.30;94.50;;;;;;5032351;28;20148;-89
2022/01/14 12:52:10;;;;;;;50.97;22.30;;;3.40;94.70;;;;;;5030674;28;20029;-90
2022/01/14 12:54:39;;;;;;;49.08;21.48;;;3.20;94.80;;;;;;5029850;28;20036;-91
2022/01/14 12:57:06;;;;;;;52.03;21.50;;;3.50;94.60;;;;;;5026835;28;20021;-90
2022/01/14 12:59:49;;;;;;;52.63;21.55;;;3.10;94.60;;;;;;5029920;28;20029;-91
2022/01/14 13:02:21;;;;;;;52.13;21.15;;;3.10;94.80;;;;;;5028630;28;20107;-94
2022/01/14 13:05:04;;;;;;;52.65;21.27;;;4.70;95.00;;;;;;5025653;28;20053;-89
2022/01/14 13:07:30;;;;;;;45.60;20.75;;;4.00;94.70;;;;;;5017676;28;20518;-92
2022/01/14 13:09:56;;;;;;;45.30;18.90;;;4.00;94.80;;;;;;5025139;28;20028;-89
2022/01/14 13:12:27;;;;;;;42.33;19.17;;;3.20;95.00;;;;;;5028157;28;20025;-87